Darstellungsparameter: Aktuell verwendete Einstellungen:
Skalierung der Graphiken ... ?
xyx+y,   Skalierungsfaktor:      Skalierung: Modus: x, Faktor: 1
Darstellungszeitraum ... ?
Vom - - bis: - -   Zeitraum: 15.09.2019 - 15.09.2019
Min/Max/Avg-Anzeige ... ?
Zeige MMA aktuell
Zeige MMA Monat
Zeige MMA alles
Zeige --A aktuell
Zeige --A Monat
Zeige --A alles
Keine MMA-Anzeige
MMA:
Keine MMA-Graphiken
MMA-Basis: 15.09.2019 - 15.09.2019
Quicknavigation für Darstellung... ?
Tage:      1T, 2T, 3T, 5T -1T -2T -3T -5T +1T +2T +3T +5T
Wochen: 1W, 2W, 3W -1W -2W -3W +1W +2W +3W
Monate: 1M, 3M, 6M -1M -3M -6M +1M +3M +6M
Jahre:    1J, 3J, 5J, 10J -1J -3J -5J -10J +1J +3J +5J +10J
Nutze für die Darstellung ... ?
Originaldaten oder Mittelwerte auf ...
Stundenbasis Tagesbasis Wochenbasis
Monatsbasis Jahresbasis      Datenbasis: Original-Daten
Darstellen als:
Statistik (Auto) Statistik J:M      Darstellung:
Zur Graphik,    zurück zur Übersicht aller Sensoren.
 
Tabellarische Datenbersicht: ?
 
Sensor: Nr:Datum:Temp:Feuchte:Taupunkt:
Aussen-T/F 1 15-09-2019 00:00:00 12 C 86 % 9.73 C
2 15-09-2019 00:05:00 11.9 C 87 % 9.81 C
3 15-09-2019 00:10:00 11.8 C 87 % 9.71 C
4 15-09-2019 00:15:00 11.8 C 87 % 9.71 C
5 15-09-2019 00:20:00 11.7 C 87 % 9.61 C
6 15-09-2019 00:25:00 11.6 C 88 % 9.68 C
7 15-09-2019 00:30:00 11.6 C 88 % 9.68 C
8 15-09-2019 00:35:00 11.6 C 88 % 9.68 C
9 15-09-2019 00:40:00 11.6 C 88 % 9.68 C
10 15-09-2019 00:45:00 11.5 C 88 % 9.58 C
11 15-09-2019 00:50:00 11.4 C 88 % 9.49 C
12 15-09-2019 00:55:00 11.3 C 88 % 9.39 C
13 15-09-2019 01:00:00 11.2 C 89 % 9.46 C
14 15-09-2019 01:05:00 11.2 C 89 % 9.46 C
15 15-09-2019 01:10:00 11.1 C 89 % 9.36 C
16 15-09-2019 01:15:00 10.9 C 89 % 9.16 C
17 15-09-2019 01:20:00 10.9 C 90 % 9.33 C
18 15-09-2019 01:25:00 10.8 C 90 % 9.23 C
19 15-09-2019 01:30:00 10.8 C 90 % 9.23 C
20 15-09-2019 01:35:00 10.7 C 90 % 9.13 C
21 15-09-2019 01:40:00 10.7 C 90 % 9.13 C
22 15-09-2019 01:45:00 10.6 C 90 % 9.03 C
23 15-09-2019 01:50:00 10.5 C 90 % 8.93 C
24 15-09-2019 01:55:00 10.5 C 91 % 9.09 C
25 15-09-2019 02:00:00 10.4 C 91 % 9 C
Sensor: Nr:Datum:Temp:Feuchte:Taupunkt:
Aussen-T/F 26 15-09-2019 02:05:00 10.5 C 91 % 9.09 C
27 15-09-2019 02:10:00 10.5 C 91 % 9.09 C
28 15-09-2019 02:15:00 10.4 C 92 % 9.16 C
29 15-09-2019 02:20:00 10.4 C 92 % 9.16 C
30 15-09-2019 02:25:00 10.4 C 92 % 9.16 C
31 15-09-2019 02:30:00 10.4 C 92 % 9.16 C
32 15-09-2019 02:35:00 10.4 C 92 % 9.16 C
33 15-09-2019 02:40:00 10.3 C 92 % 9.06 C
34 15-09-2019 02:45:00 10.3 C 92 % 9.06 C
35 15-09-2019 02:50:00 10.3 C 92 % 9.06 C
36 15-09-2019 02:55:00 10.2 C 92 % 8.96 C
37 15-09-2019 03:00:00 10.2 C 92 % 8.96 C
38 15-09-2019 03:05:00 10.3 C 93 % 9.22 C
39 15-09-2019 03:10:00 10.3 C 93 % 9.22 C
40 15-09-2019 03:15:00 10.3 C 93 % 9.22 C
41 15-09-2019 03:20:00 10.3 C 92 % 9.06 C
42 15-09-2019 03:25:00 10.1 C 92 % 8.86 C
43 15-09-2019 03:30:00 10.1 C 92 % 8.86 C
44 15-09-2019 03:35:00 10 C 92 % 8.76 C
45 15-09-2019 03:40:00 10.1 C 93 % 9.02 C
46 15-09-2019 03:45:00 10.2 C 93 % 9.12 C
47 15-09-2019 03:50:00 10.1 C 93 % 9.02 C
48 15-09-2019 03:55:00 10 C 93 % 8.92 C
49 15-09-2019 04:00:00 9.9 C 93 % 8.82 C
50 15-09-2019 04:05:00 9.9 C 93 % 8.82 C
Sensor: Nr:Datum:Temp:Feuchte:Taupunkt:
Aussen-T/F 51 15-09-2019 04:10:00 9.9 C 93 % 8.82 C
52 15-09-2019 04:15:00 9.9 C 93 % 8.82 C
53 15-09-2019 04:20:00 9.8 C 93 % 8.72 C
54 15-09-2019 04:25:00 9.8 C 93 % 8.72 C
55 15-09-2019 04:30:00 9.7 C 93 % 8.62 C
56 15-09-2019 04:35:00 9.7 C 93 % 8.62 C
57 15-09-2019 04:40:00 9.7 C 93 % 8.62 C
58 15-09-2019 04:45:00 9.6 C 93 % 8.53 C
59 15-09-2019 04:50:00 9.6 C 94 % 8.68 C
60 15-09-2019 04:55:00 9.6 C 93 % 8.53 C
61 15-09-2019 05:00:00 9.5 C 94 % 8.58 C
62 15-09-2019 05:05:00 9.5 C 94 % 8.58 C
63 15-09-2019 05:10:00 9.6 C 94 % 8.68 C
64 15-09-2019 05:15:00 9.5 C 94 % 8.58 C
65 15-09-2019 05:20:00 9.4 C 94 % 8.48 C
66 15-09-2019 05:25:00 9.3 C 94 % 8.39 C
67 15-09-2019 05:30:00 9.3 C 94 % 8.39 C
68 15-09-2019 05:35:00 9.3 C 94 % 8.39 C
69 15-09-2019 05:40:00 9.2 C 94 % 8.29 C
70 15-09-2019 05:45:00 9.1 C 94 % 8.19 C
71 15-09-2019 05:50:00 9.1 C 94 % 8.19 C
72 15-09-2019 05:55:00 9 C 94 % 8.09 C
73 15-09-2019 06:00:00 9 C 94 % 8.09 C
74 15-09-2019 06:05:00 9 C 94 % 8.09 C
75 15-09-2019 06:10:00 8.9 C 94 % 7.99 C
Sensor: Nr:Datum:Temp:Feuchte:Taupunkt:
Aussen-T/F 76 15-09-2019 06:15:00 8.8 C 94 % 7.89 C
77 15-09-2019 06:20:00 8.8 C 94 % 7.89 C
78 15-09-2019 06:25:00 8.8 C 94 % 7.89 C
79 15-09-2019 06:30:00 8.7 C 94 % 7.79 C
80 15-09-2019 06:35:00 8.7 C 94 % 7.79 C
81 15-09-2019 06:40:00 8.7 C 94 % 7.79 C
82 15-09-2019 06:45:00 8.6 C 94 % 7.69 C
83 15-09-2019 06:50:00 8.6 C 94 % 7.69 C
84 15-09-2019 06:55:00 8.6 C 95 % 7.85 C
85 15-09-2019 07:00:00 8.6 C 95 % 7.85 C
86 15-09-2019 07:05:00 8.6 C 95 % 7.85 C
87 15-09-2019 07:10:00 8.7 C 95 % 7.94 C
88 15-09-2019 07:15:00 8.8 C 95 % 8.04 C
89 15-09-2019 07:20:00 8.9 C 95 % 8.14 C
90 15-09-2019 07:25:00 8.9 C 95 % 8.14 C
91 15-09-2019 07:30:00 8.8 C 95 % 8.04 C
92 15-09-2019 07:35:00 8.8 C 95 % 8.04 C
93 15-09-2019 07:40:00 8.8 C 95 % 8.04 C
94 15-09-2019 07:45:00 8.8 C 95 % 8.04 C
95 15-09-2019 07:50:00 8.8 C 95 % 8.04 C
96 15-09-2019 07:55:00 8.8 C 95 % 8.04 C
97 15-09-2019 08:00:00 8.9 C 95 % 8.14 C
98 15-09-2019 08:05:00 9.1 C 96 % 8.5 C
99 15-09-2019 08:10:00 9.1 C 96 % 8.5 C
100 15-09-2019 08:15:00 9.2 C 96 % 8.6 C
Sensor: Nr:Datum:Temp:Feuchte:Taupunkt:
Aussen-T/F 101 15-09-2019 08:20:00 9.2 C 96 % 8.6 C
102 15-09-2019 08:25:00 9.2 C 96 % 8.6 C
103 15-09-2019 08:30:00 9.2 C 96 % 8.6 C
104 15-09-2019 08:35:00 9.3 C 96 % 8.7 C
105 15-09-2019 08:40:00 9.4 C 96 % 8.8 C
106 15-09-2019 08:45:00 9.6 C 96 % 8.99 C
107 15-09-2019 08:50:00 9.6 C 96 % 8.99 C
108 15-09-2019 08:55:00 9.7 C 96 % 9.09 C
109 15-09-2019 09:00:00 9.7 C 96 % 9.09 C
110 15-09-2019 09:05:00 9.8 C 96 % 9.19 C
111 15-09-2019 09:10:00 9.8 C 96 % 9.19 C
112 15-09-2019 09:15:00 9.8 C 96 % 9.19 C
113 15-09-2019 09:20:00 9.9 C 96 % 9.29 C
114 15-09-2019 09:25:00 9.9 C 96 % 9.29 C
115 15-09-2019 09:30:00 10 C 96 % 9.39 C
116 15-09-2019 09:35:00 10.1 C 96 % 9.49 C
117 15-09-2019 09:40:00 10.2 C 96 % 9.59 C
118 15-09-2019 09:45:00 10.3 C 96 % 9.69 C
119 15-09-2019 09:50:00 10.4 C 96 % 9.79 C
120 15-09-2019 09:55:00 10.5 C 96 % 9.89 C
121 15-09-2019 10:00:00 10.6 C 96 % 9.99 C
122 15-09-2019 10:05:00 10.7 C 96 % 10.09 C
123 15-09-2019 10:10:00 10.8 C 96 % 10.19 C
124 15-09-2019 10:15:00 10.9 C 96 % 10.29 C
125 15-09-2019 10:20:00 11.1 C 96 % 10.49 C
Sensor: Nr:Datum:Temp:Feuchte:Taupunkt:
Aussen-T/F 126 15-09-2019 10:25:00 11.2 C 96 % 10.59 C
127 15-09-2019 10:30:00 11.3 C 96 % 10.69 C
128 15-09-2019 10:35:00 11.5 C 96 % 10.88 C
129 15-09-2019 10:40:00 11.7 C 96 % 11.08 C
130 15-09-2019 10:45:00 11.9 C 96 % 11.28 C
131 15-09-2019 10:50:00 12.2 C 96 % 11.58 C
132 15-09-2019 10:55:00 12.4 C 96 % 11.78 C
133 15-09-2019 11:00:00 12.6 C 96 % 11.98 C
134 15-09-2019 11:05:00 12.8 C 96 % 12.18 C
135 15-09-2019 11:10:00 13 C 96 % 12.38 C
136 15-09-2019 11:15:00 13.2 C 95 % 12.42 C
137 15-09-2019 11:20:00 13.4 C 95 % 12.62 C
138 15-09-2019 11:25:00 13.6 C 95 % 12.81 C
139 15-09-2019 11:30:00 13.8 C 95 % 13.01 C
140 15-09-2019 11:35:00 14 C 95 % 13.21 C
141 15-09-2019 11:40:00 14.2 C 94 % 13.25 C
142 15-09-2019 11:45:00 14.4 C 94 % 13.45 C
143 15-09-2019 11:50:00 14.7 C 93 % 13.58 C
144 15-09-2019 11:55:00 14.9 C 93 % 13.78 C
145 15-09-2019 12:00:00 15.2 C 93 % 14.08 C
146 15-09-2019 12:05:00 15.4 C 92 % 14.11 C
147 15-09-2019 12:10:00 15.8 C 90 % 14.16 C
148 15-09-2019 12:15:00 16.2 C 89 % 14.39 C
149 15-09-2019 12:20:00 16.6 C 87 % 14.43 C
150 15-09-2019 12:25:00 16.8 C 86 % 14.45 C
Sensor: Nr:Datum:Temp:Feuchte:Taupunkt:
Aussen-T/F 151 15-09-2019 12:30:00 17.2 C 85 % 14.66 C
152 15-09-2019 12:35:00 17.5 C 84 % 14.77 C
153 15-09-2019 12:40:00 17.7 C 81 % 14.4 C
154 15-09-2019 12:45:00 18.1 C 81 % 14.79 C
155 15-09-2019 12:50:00 18.4 C 78 % 14.5 C
156 15-09-2019 12:55:00 18.7 C 78 % 14.79 C
157 15-09-2019 13:00:00 19 C 75 % 14.47 C
158 15-09-2019 13:05:00 19.3 C 75 % 14.76 C
159 15-09-2019 13:10:00 19.6 C 72 % 14.42 C
160 15-09-2019 13:15:00 19.9 C 73 % 14.92 C
161 15-09-2019 13:20:00 20.1 C 72 % 14.9 C
162 15-09-2019 13:25:00 20.4 C 69 % 14.52 C
163 15-09-2019 13:30:00 20.6 C 68 % 14.49 C
164 15-09-2019 13:35:00 20.9 C 68 % 14.77 C
165 15-09-2019 13:40:00 21.1 C 67 % 14.74 C
166 15-09-2019 13:45:00 21.3 C 67 % 14.93 C
167 15-09-2019 13:50:00 21.6 C 66 % 14.98 C
168 15-09-2019 13:55:00 21.7 C 66 % 15.07 C
169 15-09-2019 14:00:00 21.8 C 65 % 14.93 C
170 15-09-2019 14:05:00 22.1 C 64 % 14.97 C
171 15-09-2019 14:10:00 22.3 C 63 % 14.92 C
172 15-09-2019 14:15:00 22.5 C 62 % 14.86 C
173 15-09-2019 14:20:00 22.7 C 61 % 14.79 C
174 15-09-2019 14:25:00 22.8 C 61 % 14.89 C
175 15-09-2019 14:30:00 23 C 60 % 14.82 C
Sensor: Nr:Datum:Temp:Feuchte:Taupunkt:
Aussen-T/F 176 15-09-2019 14:35:00 23.1 C 59 % 14.65 C
177 15-09-2019 14:40:00 23.1 C 61 % 15.17 C
178 15-09-2019 14:45:00 23.2 C 59 % 14.75 C
179 15-09-2019 14:50:00 23.3 C 59 % 14.84 C
180 15-09-2019 14:55:00 23.6 C 59 % 15.12 C
181 15-09-2019 15:00:00 23.7 C 58 % 14.95 C
182 15-09-2019 15:05:00 23.8 C 58 % 15.04 C
183 15-09-2019 15:10:00 23.8 C 58 % 15.04 C
184 15-09-2019 15:15:00 23.9 C 57 % 14.87 C
185 15-09-2019 15:20:00 24.1 C 57 % 15.05 C
186 15-09-2019 15:25:00 24.1 C 56 % 14.78 C
187 15-09-2019 15:30:00 24.2 C 56 % 14.87 C
188 15-09-2019 15:35:00 24.2 C 56 % 14.87 C
189 15-09-2019 15:40:00 24.2 C 57 % 15.14 C
190 15-09-2019 15:45:00 24.2 C 56 % 14.87 C
191 15-09-2019 15:50:00 24.2 C 55 % 14.59 C
192 15-09-2019 15:55:00 24.2 C 55 % 14.59 C
193 15-09-2019 16:00:00 24.3 C 54 % 14.4 C
194 15-09-2019 16:05:00 24.3 C 54 % 14.4 C
195 15-09-2019 16:10:00 24.4 C 54 % 14.49 C
196 15-09-2019 16:15:00 24.4 C 53 % 14.2 C
197 15-09-2019 16:20:00 24.6 C 54 % 14.68 C
198 15-09-2019 16:25:00 24.6 C 53 % 14.39 C
199 15-09-2019 16:30:00 24.7 C 53 % 14.48 C
200 15-09-2019 16:35:00 24.8 C 53 % 14.57 C
Sensor: Nr:Datum:Temp:Feuchte:Taupunkt:
Aussen-T/F 201 15-09-2019 16:40:00 24.8 C 53 % 14.57 C
202 15-09-2019 16:45:00 24.9 C 52 % 14.37 C
203 15-09-2019 16:50:00 25 C 51 % 14.16 C
204 15-09-2019 16:55:00 25.1 C 50 % 13.95 C
205 15-09-2019 17:00:00 25.2 C 50 % 14.04 C
206 15-09-2019 17:05:00 25.3 C 51 % 14.44 C
207 15-09-2019 17:10:00 25.6 C 51 % 14.71 C
208 15-09-2019 17:15:00 25.8 C 50 % 14.59 C
209 15-09-2019 17:20:00 25.8 C 47 % 13.64 C
210 15-09-2019 17:25:00 25.8 C 48 % 13.96 C
211 15-09-2019 17:30:00 25.9 C 48 % 14.05 C
212 15-09-2019 17:35:00 26 C 47 % 13.82 C
213 15-09-2019 17:40:00 26.1 C 46 % 13.58 C
214 15-09-2019 17:45:00 26.2 C 45 % 13.33 C
215 15-09-2019 17:50:00 26.2 C 45 % 13.33 C
216 15-09-2019 17:55:00 26.2 C 45 % 13.33 C
217 15-09-2019 18:00:00 26.4 C 44 % 13.17 C
218 15-09-2019 18:05:00 26.6 C 45 % 13.69 C
219 15-09-2019 18:10:00 26.7 C 45 % 13.78 C
220 15-09-2019 18:15:00 26.8 C 46 % 14.21 C
221 15-09-2019 18:20:00 26.8 C 49 % 15.19 C
222 15-09-2019 18:25:00 26.8 C 42 % 12.82 C
223 15-09-2019 18:30:00 26.8 C 42 % 12.82 C
224 15-09-2019 18:35:00 26.7 C 48 % 14.78 C
225 15-09-2019 18:40:00 26.6 C 49 % 15.01 C
Sensor: Nr:Datum:Temp:Feuchte:Taupunkt:
Aussen-T/F 226 15-09-2019 18:45:00 26.1 C 47 % 13.91 C
227 15-09-2019 18:50:00 25.6 C 46 % 13.12 C
228 15-09-2019 18:55:00 25.3 C 49 % 13.82 C
229 15-09-2019 19:00:00 25.1 C 51 % 14.25 C
230 15-09-2019 19:05:00 24.7 C 51 % 13.89 C
231 15-09-2019 19:10:00 24.2 C 53 % 14.02 C
232 15-09-2019 19:15:00 23.5 C 53 % 13.37 C
233 15-09-2019 19:20:00 22.8 C 55 % 13.29 C
234 15-09-2019 19:25:00 22.1 C 57 % 13.19 C
235 15-09-2019 19:30:00 21.4 C 61 % 13.57 C
236 15-09-2019 19:35:00 20.8 C 61 % 13.01 C
237 15-09-2019 19:40:00 20.3 C 62 % 12.79 C
238 15-09-2019 19:45:00 19.8 C 61 % 12.07 C
239 15-09-2019 19:50:00 19.6 C 61 % 11.88 C
240 15-09-2019 19:55:00 19.3 C 62 % 11.84 C
241 15-09-2019 20:00:00 19.2 C 61 % 11.5 C
242 15-09-2019 20:05:00 19 C 62 % 11.56 C
243 15-09-2019 20:10:00 18.8 C 61 % 11.13 C
244 15-09-2019 20:15:00 18.6 C 62 % 11.18 C
245 15-09-2019 20:20:00 18.4 C 63 % 11.23 C
246 15-09-2019 20:25:00 18.3 C 63 % 11.14 C
247 15-09-2019 20:30:00 18.1 C 63 % 10.95 C
248 15-09-2019 20:35:00 17.9 C 64 % 11 C
249 15-09-2019 20:40:00 17.8 C 65 % 11.14 C
250 15-09-2019 20:45:00 17.7 C 66 % 11.27 C
Sensor: Nr:Datum:Temp:Feuchte:Taupunkt:
Aussen-T/F 251 15-09-2019 20:50:00 17.5 C 65 % 10.85 C
252 15-09-2019 20:55:00 17.4 C 65 % 10.76 C
253 15-09-2019 21:00:00 17.3 C 62 % 9.96 C
254 15-09-2019 21:05:00 17.4 C 64 % 10.53 C
255 15-09-2019 21:10:00 17.4 C 62 % 10.05 C
256 15-09-2019 21:15:00 17.3 C 64 % 10.43 C
257 15-09-2019 21:20:00 17.2 C 66 % 10.8 C
258 15-09-2019 21:25:00 17.1 C 67 % 10.93 C
259 15-09-2019 21:30:00 16.8 C 68 % 10.87 C
260 15-09-2019 21:35:00 16.6 C 69 % 10.89 C
261 15-09-2019 21:40:00 16.3 C 69 % 10.61 C
262 15-09-2019 21:45:00 16.1 C 70 % 10.63 C
263 15-09-2019 21:50:00 15.9 C 71 % 10.65 C
264 15-09-2019 21:55:00 15.8 C 72 % 10.77 C
265 15-09-2019 22:00:00 15.6 C 73 % 10.78 C
266 15-09-2019 22:05:00 15.4 C 74 % 10.79 C
267 15-09-2019 22:10:00 15.1 C 75 % 10.71 C
268 15-09-2019 22:15:00 14.8 C 75 % 10.42 C
269 15-09-2019 22:20:00 14.6 C 75 % 10.22 C
270 15-09-2019 22:25:00 14.4 C 77 % 10.42 C
271 15-09-2019 22:30:00 14.3 C 77 % 10.33 C
272 15-09-2019 22:35:00 14.2 C 77 % 10.23 C
273 15-09-2019 22:40:00 14.1 C 78 % 10.33 C
274 15-09-2019 22:45:00 13.9 C 78 % 10.13 C
275 15-09-2019 22:50:00 13.7 C 78 % 9.94 C
Sensor: Nr:Datum:Temp:Feuchte:Taupunkt:
Aussen-T/F 276 15-09-2019 22:55:00 13.6 C 79 % 10.03 C
277 15-09-2019 23:00:00 13.4 C 80 % 10.02 C
278 15-09-2019 23:05:00 13.3 C 80 % 9.93 C
279 15-09-2019 23:10:00 13.2 C 80 % 9.83 C
280 15-09-2019 23:15:00 13.1 C 81 % 9.92 C
281 15-09-2019 23:20:00 13.1 C 81 % 9.92 C
282 15-09-2019 23:25:00 13.1 C 81 % 9.92 C
283 15-09-2019 23:30:00 12.9 C 81 % 9.72 C
284 15-09-2019 23:35:00 12.9 C 82 % 9.9 C
285 15-09-2019 23:40:00 12.8 C 82 % 9.81 C
286 15-09-2019 23:45:00 12.8 C 82 % 9.81 C
287 15-09-2019 23:50:00 12.7 C 82 % 9.71 C
288 15-09-2019 23:55:00 12.6 C 83 % 9.79 C

Legende:
   Min
   Max


Maximal/Minimal-Werte vom 15.09.2019 - 15.09.2019

Sensor Min Max Avg
Temp
(Aussen-T/F)
8.6 °C
15-09-2019  06:45:00
26.8 °C
15-09-2019  18:15:00
15.4 °C
Feuchte
(Aussen-T/F)
42 %
15-09-2019  18:25:00
96 %
15-09-2019  08:05:00
78.55 %
Taupunkt
(Aussen-T/F)
7.69 C
15-09-2019  06:45:00
15.19 C
15-09-2019  18:20:00
11.12 C

Die Daten stammen von einer Davis Vantage Pro 2 Wetter-Station und werden unter Linux mit der Software wview2wettercgi und aufbereitet. Alle Angaben erfolgen ohne Gewähr für ihre Vollständigkeit oder Richtigkeit.
Kontakt: Rainer Krienke krienke@uni-koblenz.de . Meine Webseiten an der Uni Koblenz oder privat.
Version: $Revision: 0.78 $